createdAt,value
2019-03-30T00:01:55.951Z,7.50
2019-03-30T00:04:27.225Z,7.30
2019-03-30T00:06:58.292Z,7.20
2019-03-30T00:09:29.465Z,7.10
2019-03-30T00:12:00.615Z,7.00
2019-03-30T00:14:31.871Z,7.00
2019-03-30T00:17:04.086Z,6.90
2019-03-30T00:19:35.396Z,7.00
2019-03-30T00:22:06.589Z,7.10
2019-03-30T00:24:37.855Z,7.20
2019-03-30T00:27:08.952Z,7.40
2019-03-30T00:29:40.141Z,7.60
2019-03-30T00:32:11.394Z,7.70
2019-03-30T00:34:42.600Z,7.80
2019-03-30T00:37:13.769Z,7.90
2019-03-30T00:39:44.964Z,8.10
2019-03-30T00:42:16.210Z,8.10
2019-03-30T00:44:47.426Z,8.20
2019-03-30T00:47:18.592Z,8.20
2019-03-30T00:49:50.242Z,8.20
2019-03-30T00:52:21.505Z,8.20
2019-03-30T00:54:52.622Z,8.20
2019-03-30T00:57:23.798Z,8.20
2019-03-30T00:59:55.064Z,8.10
2019-03-30T01:02:26.320Z,8.10
2019-03-30T01:04:57.579Z,8.10
2019-03-30T01:07:28.822Z,8.00
2019-03-30T01:09:59.990Z,8.00
2019-03-30T01:12:31.137Z,8.00
2019-03-30T01:15:02.411Z,8.00
2019-03-30T01:17:33.558Z,8.10
2019-03-30T01:20:05.352Z,8.20
2019-03-30T01:22:36.522Z,8.30
2019-03-30T01:25:08.128Z,8.30
2019-03-30T01:27:39.333Z,8.30
2019-03-30T01:30:22.550Z,8.30
2019-03-30T01:32:43.516Z,8.20
2019-03-30T01:35:14.800Z,8.10
2019-03-30T01:37:46.210Z,8.00
2019-03-30T01:40:17.419Z,8.00
2019-03-30T01:42:48.602Z,7.90
2019-03-30T01:45:19.881Z,7.80
2019-03-30T01:47:51.067Z,7.80
2019-03-30T01:50:22.342Z,7.70
2019-03-30T01:52:53.527Z,7.70
2019-03-30T01:55:24.717Z,7.70
2019-03-30T01:57:55.880Z,7.80
2019-03-30T02:00:28.166Z,7.80
2019-03-30T02:02:59.250Z,7.80
2019-03-30T02:05:30.529Z,7.90
2019-03-30T02:08:01.690Z,7.90
2019-03-30T02:10:48.835Z,8.10
2019-03-30T02:13:20.182Z,8.20
2019-03-30T02:15:51.410Z,8.30
2019-03-30T02:18:22.644Z,8.40
2019-03-30T02:20:53.901Z,8.40
2019-03-30T02:23:25.267Z,8.30
2019-03-30T02:25:56.558Z,8.30
2019-03-30T02:28:27.849Z,8.30
2019-03-30T02:30:59.146Z,8.20
2019-03-30T02:33:30.373Z,8.20
2019-03-30T02:36:01.632Z,8.20
2019-03-30T02:38:32.906Z,8.10
2019-03-30T02:41:04.243Z,8.10
2019-03-30T02:43:35.478Z,8.10
2019-03-30T02:46:06.822Z,8.10
2019-03-30T02:48:38.011Z,8.10
2019-03-30T02:51:09.417Z,8.10
2019-03-30T02:53:40.832Z,8.00
2019-03-30T02:56:12.060Z,8.00
2019-03-30T02:58:43.205Z,8.00
2019-03-30T03:01:14.431Z,8.00
2019-03-30T03:03:45.672Z,8.00
2019-03-30T03:06:17.035Z,8.00
2019-03-30T03:08:48.220Z,8.00
2019-03-30T03:11:19.487Z,8.20
2019-03-30T03:13:50.664Z,8.20
2019-03-30T03:16:22.031Z,8.20
2019-03-30T03:18:53.309Z,8.10
2019-03-30T03:21:24.604Z,8.10
2019-03-30T03:23:55.831Z,8.10
2019-03-30T03:26:27.065Z,8.20
2019-03-30T03:28:58.325Z,8.20
2019-03-30T03:31:29.709Z,8.10
2019-03-30T03:34:01.004Z,7.80
2019-03-30T03:36:32.318Z,7.60
2019-03-30T03:39:04.441Z,7.40
2019-03-30T03:41:35.735Z,7.30
2019-03-30T03:44:06.982Z,7.10
2019-03-30T03:46:38.286Z,7.00
2019-03-30T03:49:09.592Z,7.00
2019-03-30T03:51:41.050Z,7.00
2019-03-30T03:54:12.386Z,7.00
2019-03-30T03:56:45.451Z,6.90
2019-03-30T03:59:17.068Z,6.80
2019-03-30T04:01:51.405Z,6.80
2019-03-30T04:04:25.236Z,6.80
2019-03-30T04:07:01.200Z,6.90
2019-03-30T04:09:35.094Z,6.80
2019-03-30T04:12:08.513Z,6.80
2019-03-30T04:14:41.620Z,6.80
2019-03-30T04:17:12.896Z,6.60
2019-03-30T04:19:44.404Z,6.50
2019-03-30T04:22:15.759Z,6.30
2019-03-30T04:24:47.075Z,6.30
2019-03-30T04:27:18.332Z,6.50
2019-03-30T04:29:49.539Z,6.60
2019-03-30T04:32:20.844Z,6.70
2019-03-30T04:34:52.020Z,6.70
2019-03-30T04:37:23.266Z,6.80
2019-03-30T04:39:54.511Z,6.80
2019-03-30T04:42:25.778Z,6.90
2019-03-30T04:44:57.074Z,6.90
2019-03-30T04:47:28.311Z,6.90
2019-03-30T04:49:59.568Z,6.80
2019-03-30T04:52:30.994Z,6.80
2019-03-30T04:55:02.250Z,6.70
2019-03-30T04:57:33.566Z,6.60
2019-03-30T05:00:05.402Z,6.70
2019-03-30T05:02:36.638Z,6.60
2019-03-30T05:05:09.096Z,6.60
2019-03-30T05:07:40.392Z,6.60
2019-03-30T05:10:11.697Z,6.60
2019-03-30T05:12:43.004Z,6.60
2019-03-30T05:15:14.210Z,6.60
2019-03-30T05:17:47.852Z,6.60
2019-03-30T05:20:18.344Z,6.60
2019-03-30T05:22:51.385Z,6.60
2019-03-30T05:25:22.466Z,6.50
2019-03-30T05:27:53.794Z,6.50
2019-03-30T05:30:25.028Z,6.50
2019-03-30T05:33:05.614Z,6.40
2019-03-30T05:35:32.354Z,6.50
2019-03-30T05:38:03.690Z,6.60
2019-03-30T05:40:34.965Z,6.70
2019-03-30T05:43:06.242Z,6.70
2019-03-30T05:45:37.815Z,6.70
2019-03-30T05:48:09.033Z,6.80
2019-03-30T05:50:40.335Z,6.90
2019-03-30T05:53:11.929Z,7.10
2019-03-30T05:55:43.243Z,7.20
2019-03-30T05:58:14.529Z,7.40
2019-03-30T06:00:45.775Z,7.80
2019-03-30T06:03:17.074Z,8.30
2019-03-30T06:05:48.458Z,8.70
2019-03-30T06:08:19.694Z,9.40
2019-03-30T06:10:50.950Z,10.10
2019-03-30T06:13:22.287Z,10.80
2019-03-30T06:15:53.735Z,11.50
2019-03-30T06:18:25.099Z,12.20
2019-03-30T06:20:56.358Z,12.70
2019-03-30T06:23:27.623Z,13.20
2019-03-30T06:25:58.929Z,13.90
2019-03-30T06:28:30.726Z,14.20
2019-03-30T06:31:01.981Z,14.50
2019-03-30T06:33:33.227Z,15.00
2019-03-30T06:36:04.474Z,15.00
2019-03-30T06:38:35.660Z,14.60
2019-03-30T06:41:07.036Z,14.40
2019-03-30T06:43:38.306Z,14.50
2019-03-30T06:46:09.592Z,14.40
2019-03-30T06:48:40.766Z,14.30
2019-03-30T06:51:12.073Z,14.60
2019-03-30T06:53:43.318Z,15.40
2019-03-30T06:56:14.564Z,16.20
2019-03-30T06:58:45.721Z,16.60
2019-03-30T07:01:17.027Z,17.00
2019-03-30T07:03:48.381Z,17.10
2019-03-30T07:06:20.692Z,17.50
2019-03-30T07:08:54.107Z,17.90
2019-03-30T07:11:28.224Z,17.90
2019-03-30T07:14:02.821Z,18.00
2019-03-30T07:16:36.652Z,17.90
2019-03-30T07:19:07.820Z,17.40
2019-03-30T07:21:39.124Z,16.80
2019-03-30T07:24:10.418Z,16.70
2019-03-30T07:26:41.644Z,16.80
2019-03-30T07:29:12.852Z,17.20
2019-03-30T07:31:44.132Z,17.50
2019-03-30T07:34:15.367Z,17.80
2019-03-30T07:36:46.660Z,18.00
2019-03-30T07:39:17.937Z,18.40
2019-03-30T07:41:49.223Z,18.10
2019-03-30T07:44:20.491Z,17.70
2019-03-30T07:46:51.782Z,17.20
2019-03-30T07:49:23.052Z,16.70
2019-03-30T07:51:54.392Z,16.30
2019-03-30T07:54:25.706Z,15.80
2019-03-30T07:57:04.584Z,15.70
2019-03-30T07:59:29.899Z,16.00
2019-03-30T08:02:01.155Z,16.80
2019-03-30T08:04:32.361Z,17.20
2019-03-30T08:07:03.721Z,17.70
2019-03-30T08:09:37.216Z,18.20
2019-03-30T08:12:07.951Z,18.50
2019-03-30T08:14:39.347Z,18.90
2019-03-30T08:17:10.705Z,19.30
2019-03-30T08:19:41.942Z,19.40
2019-03-30T08:22:13.216Z,19.50
2019-03-30T08:24:44.554Z,19.80
2019-03-30T08:27:16.184Z,20.50
2019-03-30T08:29:47.380Z,20.50
2019-03-30T08:32:18.666Z,20.50
2019-03-30T08:34:49.959Z,20.70
2019-03-30T08:37:21.226Z,20.80
2019-03-30T08:39:52.457Z,20.60
2019-03-30T08:42:23.837Z,20.70
2019-03-30T08:44:55.095Z,21.00
2019-03-30T08:47:26.540Z,21.20
2019-03-30T08:49:57.816Z,21.30
2019-03-30T08:52:29.184Z,21.00
2019-03-30T08:55:00.478Z,20.80
2019-03-30T08:57:31.695Z,20.40
2019-03-30T09:00:03.003Z,20.30
2019-03-30T09:02:34.250Z,20.40
2019-03-30T09:05:06.466Z,20.70
2019-03-30T09:07:37.773Z,20.50
2019-03-30T09:10:09.969Z,20.80
2019-03-30T09:12:41.234Z,21.30
2019-03-30T09:15:12.502Z,21.80
2019-03-30T09:17:43.708Z,22.30
2019-03-30T09:20:15.017Z,23.00
2019-03-30T09:22:46.354Z,24.00
2019-03-30T09:25:17.687Z,24.40
2019-03-30T09:27:48.833Z,24.00
2019-03-30T09:30:20.523Z,23.90
2019-03-30T09:32:51.865Z,24.00
2019-03-30T09:35:23.153Z,24.20
2019-03-30T09:37:54.480Z,24.10
2019-03-30T09:40:25.734Z,24.00
2019-03-30T09:42:57.003Z,24.00
2019-03-30T09:45:28.346Z,23.60
2019-03-30T09:47:59.554Z,23.50
2019-03-30T09:50:30.922Z,23.50
2019-03-30T09:53:02.235Z,23.60
2019-03-30T09:55:33.556Z,24.00
2019-03-30T09:58:04.880Z,24.10
2019-03-30T10:00:36.204Z,24.30
2019-03-30T10:03:07.503Z,24.40
2019-03-30T10:05:38.877Z,24.70
2019-03-30T10:08:10.065Z,24.70
2019-03-30T10:10:41.354Z,25.10
2019-03-30T10:13:12.578Z,25.70
2019-03-30T10:15:43.962Z,25.70
2019-03-30T10:18:15.163Z,25.50
2019-03-30T10:20:46.465Z,25.80
2019-03-30T10:23:17.605Z,25.80
2019-03-30T10:25:48.878Z,25.40
2019-03-30T10:28:20.209Z,24.50
2019-03-30T10:30:51.511Z,23.50
2019-03-30T10:33:22.797Z,22.90
2019-03-30T10:35:54.139Z,22.50
2019-03-30T10:38:25.439Z,22.30
2019-03-30T10:40:56.758Z,21.90
2019-03-30T10:43:28.034Z,21.50
2019-03-30T10:45:59.289Z,21.10
2019-03-30T10:48:30.516Z,20.80
2019-03-30T10:51:01.852Z,20.60
2019-03-30T10:53:33.199Z,20.60
2019-03-30T10:56:04.647Z,20.60
2019-03-30T10:58:35.861Z,20.60
2019-03-30T11:01:07.187Z,20.60
2019-03-30T11:03:38.364Z,20.40
2019-03-30T11:06:09.891Z,20.10
2019-03-30T11:08:41.187Z,19.90
2019-03-30T11:11:12.442Z,19.90
2019-03-30T11:13:43.708Z,20.00
2019-03-30T11:16:15.036Z,19.90
2019-03-30T11:18:46.261Z,19.60
2019-03-30T11:21:17.567Z,19.60
2019-03-30T11:23:48.874Z,19.30
2019-03-30T11:26:20.100Z,19.20
2019-03-30T11:28:51.316Z,19.20
2019-03-30T11:31:22.673Z,19.10
2019-03-30T11:33:53.900Z,19.10
2019-03-30T11:36:25.097Z,19.50
2019-03-30T11:38:56.325Z,19.80
2019-03-30T11:41:27.618Z,20.10
2019-03-30T11:43:58.896Z,20.00
2019-03-30T11:46:30.191Z,20.00
2019-03-30T11:49:01.458Z,20.10
2019-03-30T11:51:32.703Z,20.10
2019-03-30T11:54:05.413Z,20.10
2019-03-30T11:56:36.876Z,20.30
2019-03-30T11:59:08.073Z,20.50
2019-03-30T12:01:39.399Z,20.80
2019-03-30T12:04:10.895Z,20.60
2019-03-30T12:06:42.102Z,20.40
2019-03-30T12:09:13.389Z,20.30
2019-03-30T12:12:03.489Z,19.70
2019-03-30T12:14:34.786Z,19.40
2019-03-30T12:17:06.102Z,19.80
2019-03-30T12:19:37.390Z,19.80
2019-03-30T12:22:08.704Z,19.30
2019-03-30T12:24:39.894Z,19.00
2019-03-30T12:27:11.206Z,18.60
2019-03-30T12:29:44.494Z,18.50
2019-03-30T12:32:15.447Z,18.30
2019-03-30T12:34:46.685Z,18.20
2019-03-30T12:37:18.023Z,18.30
2019-03-30T12:39:49.339Z,18.70
2019-03-30T12:42:20.665Z,19.20
2019-03-30T12:44:51.922Z,20.00
2019-03-30T12:47:23.178Z,20.60
2019-03-30T12:49:54.456Z,20.20
2019-03-30T12:52:26.601Z,19.70
2019-03-30T12:54:58.078Z,19.00
2019-03-30T12:57:29.374Z,18.60
2019-03-30T13:00:00.600Z,18.50
2019-03-30T13:02:31.927Z,19.60
2019-03-30T13:05:03.189Z,20.10
2019-03-30T13:07:34.550Z,20.00
2019-03-30T13:10:07.131Z,20.10
2019-03-30T13:12:38.314Z,20.90
2019-03-30T13:15:09.839Z,21.10
2019-03-30T13:17:41.016Z,21.40
2019-03-30T13:20:12.427Z,22.70
2019-03-30T13:22:43.749Z,22.10
2019-03-30T13:25:15.007Z,21.80
2019-03-30T13:27:46.350Z,21.30
2019-03-30T13:30:17.967Z,20.60
2019-03-30T13:32:53.179Z,21.40
2019-03-30T13:35:23.080Z,22.50
2019-03-30T13:37:54.306Z,21.80
2019-03-30T13:40:25.495Z,20.70
2019-03-30T13:42:56.811Z,20.60
2019-03-30T13:45:28.143Z,20.50
2019-03-30T13:47:59.453Z,20.40
2019-03-30T13:50:31.163Z,20.40
2019-03-30T13:53:02.726Z,20.70
2019-03-30T13:55:33.922Z,21.30
2019-03-30T13:58:05.327Z,22.10
2019-03-30T14:00:36.625Z,22.40
2019-03-30T14:03:07.981Z,22.30
2019-03-30T14:05:39.307Z,22.50
2019-03-30T14:08:10.577Z,22.70
2019-03-30T14:10:41.860Z,22.60
2019-03-30T14:13:13.230Z,22.60
2019-03-30T14:15:44.492Z,23.20
2019-03-30T14:18:15.778Z,23.20
2019-03-30T14:20:47.072Z,23.30
2019-03-30T14:23:18.352Z,23.60
2019-03-30T14:25:49.638Z,23.90
2019-03-30T14:28:20.944Z,24.50
2019-03-30T14:30:52.222Z,24.00
2019-03-30T14:33:23.571Z,23.80
2019-03-30T14:35:54.845Z,23.70
2019-03-30T14:38:26.210Z,23.00
2019-03-30T14:40:57.417Z,22.70
2019-03-30T14:43:28.783Z,22.60
2019-03-30T14:46:00.109Z,22.10
2019-03-30T14:48:31.405Z,22.90
2019-03-30T14:51:02.691Z,22.90
2019-03-30T14:53:34.113Z,22.80
2019-03-30T14:56:05.497Z,22.70
2019-03-30T14:58:36.815Z,23.10
2019-03-30T15:01:08.127Z,23.10
2019-03-30T15:03:39.464Z,23.00
2019-03-30T15:06:10.670Z,22.60
2019-03-30T15:08:41.928Z,21.60
2019-03-30T15:11:13.134Z,20.60
2019-03-30T15:13:44.489Z,19.70
2019-03-30T15:16:15.746Z,19.00
2019-03-30T15:18:47.072Z,18.50
2019-03-30T15:21:18.347Z,18.10
2019-03-30T15:23:49.705Z,17.80
2019-03-30T15:26:22.203Z,17.60
2019-03-30T15:28:53.669Z,17.40
2019-03-30T15:31:24.903Z,17.30
2019-03-30T15:33:56.290Z,17.20
2019-03-30T15:36:27.558Z,17.10
2019-03-30T15:38:58.892Z,17.10
2019-03-30T15:41:30.193Z,17.10
2019-03-30T15:44:01.413Z,17.20
2019-03-30T15:46:32.723Z,17.30
2019-03-30T15:49:04.019Z,17.20
2019-03-30T15:51:37.584Z,17.20
2019-03-30T15:54:08.233Z,17.10
2019-03-30T15:56:39.512Z,16.90
2019-03-30T15:59:10.735Z,16.90
2019-03-30T16:01:42.051Z,16.80
2019-03-30T16:04:13.368Z,16.70
2019-03-30T16:06:44.573Z,16.70
2019-03-30T16:09:15.924Z,16.60
2019-03-30T16:11:47.537Z,16.50
2019-03-30T16:14:18.893Z,16.50
2019-03-30T16:16:50.249Z,16.50
2019-03-30T16:19:21.565Z,16.50
2019-03-30T16:21:52.872Z,16.40
2019-03-30T16:24:24.199Z,16.40
2019-03-30T16:26:55.475Z,16.40
2019-03-30T16:29:26.812Z,16.40
2019-03-30T16:31:58.122Z,16.40
2019-03-30T16:34:29.413Z,16.30
2019-03-30T16:37:00.719Z,16.30
2019-03-30T16:39:34.792Z,16.20
2019-03-30T16:42:05.014Z,16.10
2019-03-30T16:44:36.330Z,15.90
2019-03-30T16:47:07.626Z,15.80
2019-03-30T16:49:38.896Z,15.60
2019-03-30T16:52:10.159Z,15.50
2019-03-30T16:54:41.415Z,15.30
2019-03-30T16:57:12.701Z,15.20
2019-03-30T16:59:44.081Z,15.10
2019-03-30T17:02:15.387Z,15.00
2019-03-30T17:04:46.704Z,14.90
2019-03-30T17:07:18.056Z,14.90
2019-03-30T17:09:49.354Z,14.80
2019-03-30T17:12:20.640Z,14.70
2019-03-30T17:14:51.997Z,14.70
2019-03-30T17:17:23.305Z,14.80
2019-03-30T17:19:54.663Z,14.90
2019-03-30T17:22:25.967Z,14.90
2019-03-30T17:24:58.591Z,14.80
2019-03-30T17:27:29.840Z,14.60
2019-03-30T17:30:01.164Z,14.50
2019-03-30T17:32:32.421Z,14.30
2019-03-30T17:35:03.678Z,14.10
2019-03-30T17:37:34.897Z,13.90
2019-03-30T17:40:07.197Z,13.70
2019-03-30T17:42:39.053Z,13.60
2019-03-30T17:45:11.527Z,13.40
2019-03-30T17:47:42.911Z,13.30
2019-03-30T17:50:14.986Z,13.20
2019-03-30T17:52:46.225Z,13.10
2019-03-30T17:55:17.520Z,13.00
2019-03-30T17:57:48.845Z,12.90
2019-03-30T18:00:20.643Z,12.90
2019-03-30T18:02:51.948Z,12.70
2019-03-30T18:05:23.247Z,12.70
2019-03-30T18:07:54.513Z,12.50
2019-03-30T18:10:25.661Z,12.40
2019-03-30T18:12:56.984Z,12.30
2019-03-30T18:15:28.204Z,12.20
2019-03-30T18:17:59.548Z,12.10
2019-03-30T18:20:30.824Z,12.00
2019-03-30T18:23:02.040Z,12.00
2019-03-30T18:25:33.297Z,12.00
2019-03-30T18:28:04.504Z,12.00
2019-03-30T18:30:38.973Z,12.00
2019-03-30T18:33:10.387Z,12.00
2019-03-30T18:35:41.873Z,11.90
2019-03-30T18:38:13.396Z,12.00
2019-03-30T18:40:44.806Z,12.20
2019-03-30T18:43:16.133Z,12.20
2019-03-30T18:45:47.438Z,12.10
2019-03-30T18:48:19.704Z,12.10
2019-03-30T18:50:50.961Z,12.00
2019-03-30T18:53:22.349Z,12.00
2019-03-30T18:55:53.755Z,12.00
2019-03-30T18:58:25.060Z,12.00
2019-03-30T19:00:56.365Z,12.00
2019-03-30T19:03:27.694Z,11.90
2019-03-30T19:05:58.909Z,12.00
2019-03-30T19:08:30.207Z,12.00
2019-03-30T19:11:01.552Z,12.00
2019-03-30T19:13:32.834Z,12.10
2019-03-30T19:16:04.165Z,12.10
2019-03-30T19:18:35.502Z,12.00
2019-03-30T19:21:06.749Z,12.00
2019-03-30T19:23:38.055Z,12.00
2019-03-30T19:26:09.362Z,12.00
2019-03-30T19:28:45.292Z,12.00
2019-03-30T19:31:13.538Z,12.00
2019-03-30T19:33:44.861Z,12.00
2019-03-30T19:36:16.147Z,12.00
2019-03-30T19:38:47.523Z,11.90
2019-03-30T19:41:18.840Z,11.80
2019-03-30T19:43:50.218Z,11.70
2019-03-30T19:46:21.524Z,11.60
2019-03-30T19:48:52.819Z,11.50
2019-03-30T19:51:24.137Z,11.30
2019-03-30T19:53:55.522Z,11.20
2019-03-30T19:56:27.178Z,11.20
2019-03-30T19:59:10.123Z,11.10
2019-03-30T20:01:31.582Z,11.00
2019-03-30T20:04:03.027Z,11.00
2019-03-30T20:06:34.324Z,10.90
2019-03-30T20:09:08.491Z,10.80
2019-03-30T20:11:39.691Z,10.80
2019-03-30T20:14:10.994Z,10.80
2019-03-30T20:16:42.518Z,10.80
2019-03-30T20:19:13.766Z,10.80
2019-03-30T20:21:44.994Z,10.80
2019-03-30T20:24:16.250Z,10.90
2019-03-30T20:26:47.465Z,10.90
2019-03-30T20:29:25.247Z,10.80
2019-03-30T20:31:51.711Z,10.70
2019-03-30T20:34:23.275Z,10.60
2019-03-30T20:36:54.581Z,10.50
2019-03-30T20:39:25.979Z,10.50
2019-03-30T20:41:57.314Z,10.40
2019-03-30T20:44:28.512Z,10.40
2019-03-30T20:46:59.850Z,10.30
2019-03-30T20:49:31.123Z,10.30
2019-03-30T20:52:02.466Z,10.30
2019-03-30T20:54:33.756Z,10.20
2019-03-30T20:57:05.032Z,10.10
2019-03-30T20:59:40.188Z,10.00
2019-03-30T21:02:09.346Z,10.00
2019-03-30T21:04:40.582Z,9.90
2019-03-30T21:07:11.788Z,9.80
2019-03-30T21:09:42.985Z,9.80
2019-03-30T21:12:14.224Z,9.80
2019-03-30T21:14:45.438Z,9.70
2019-03-30T21:17:16.714Z,9.70
2019-03-30T21:19:47.982Z,9.70
2019-03-30T21:22:19.317Z,9.80
2019-03-30T21:24:50.657Z,9.80
2019-03-30T21:27:21.850Z,9.90
2019-03-30T21:29:55.218Z,9.90
2019-03-30T21:32:26.593Z,10.00
2019-03-30T21:34:57.872Z,10.10
2019-03-30T21:37:29.227Z,10.10
2019-03-30T21:40:00.523Z,10.10
2019-03-30T21:42:31.821Z,10.20
2019-03-30T21:45:03.045Z,10.20
2019-03-30T21:47:34.383Z,10.20
2019-03-30T21:50:06.409Z,10.20
2019-03-30T21:52:37.666Z,10.20
2019-03-30T21:55:09.442Z,10.10
2019-03-30T21:57:40.719Z,10.20
2019-03-30T22:00:12.119Z,10.20
2019-03-30T22:02:43.402Z,10.10
2019-03-30T22:05:14.667Z,10.10
2019-03-30T22:07:45.855Z,10.10
2019-03-30T22:10:24.522Z,10.00
2019-03-30T22:12:55.855Z,10.00
2019-03-30T22:15:29.046Z,10.10
2019-03-30T22:18:00.363Z,10.10
2019-03-30T22:20:31.668Z,10.10
2019-03-30T22:23:02.865Z,9.90
2019-03-30T22:25:34.163Z,9.70
2019-03-30T22:28:05.480Z,9.60
2019-03-30T22:30:36.778Z,9.60
2019-03-30T22:33:08.110Z,9.50
2019-03-30T22:35:39.327Z,9.40
2019-03-30T22:38:10.554Z,9.50
2019-03-30T22:40:41.800Z,9.50
2019-03-30T22:43:13.067Z,9.60
2019-03-30T22:45:44.373Z,9.60
2019-03-30T22:48:15.680Z,9.60
2019-03-30T22:50:46.975Z,9.60
2019-03-30T22:53:18.276Z,9.60
2019-03-30T22:55:49.558Z,9.70
2019-03-30T22:58:20.858Z,9.60
2019-03-30T23:01:13.596Z,9.70
2019-03-30T23:03:44.833Z,9.60
2019-03-30T23:06:16.129Z,9.50
2019-03-30T23:08:47.445Z,9.50
2019-03-30T23:11:18.692Z,9.40
2019-03-30T23:13:50.008Z,9.20
2019-03-30T23:16:21.348Z,9.10
2019-03-30T23:18:52.611Z,8.90
2019-03-30T23:21:23.863Z,8.80
2019-03-30T23:23:55.165Z,8.70
2019-03-30T23:26:26.453Z,8.70
2019-03-30T23:28:59.486Z,8.80
2019-03-30T23:31:30.614Z,8.90
2019-03-30T23:34:01.941Z,9.10
2019-03-30T23:36:33.247Z,9.20
2019-03-30T23:39:06.483Z,9.30
2019-03-30T23:41:37.800Z,9.40
2019-03-30T23:44:09.082Z,9.40
2019-03-30T23:46:40.307Z,9.50
2019-03-30T23:49:11.599Z,9.40
2019-03-30T23:51:42.846Z,9.40
2019-03-30T23:54:16.292Z,9.40
2019-03-30T23:56:48.569Z,9.40
2019-03-30T23:59:19.905Z,9.50
